sensor_id;sensor_type;location;lat;lon;timestamp;temperature;humidity
3055;DHT22;1537;52.018;8.542;2022-10-29T00:02:45;17.20;69.50
3055;DHT22;1537;52.018;8.542;2022-10-29T00:06:10;17.20;69.80
3055;DHT22;1537;52.018;8.542;2022-10-29T00:09:34;17.20;69.80
3055;DHT22;1537;52.018;8.542;2022-10-29T00:13:01;17.20;69.80
3055;DHT22;1537;52.018;8.542;2022-10-29T00:16:27;17.10;70.00
3055;DHT22;1537;52.018;8.542;2022-10-29T00:19:51;17.10;70.00
3055;DHT22;1537;52.018;8.542;2022-10-29T00:23:15;17.20;70.00
3055;DHT22;1537;52.018;8.542;2022-10-29T00:26:38;17.20;69.90
3055;DHT22;1537;52.018;8.542;2022-10-29T00:30:04;17.20;69.70
3055;DHT22;1537;52.018;8.542;2022-10-29T00:33:28;17.30;69.80
3055;DHT22;1537;52.018;8.542;2022-10-29T00:36:52;17.20;69.80
3055;DHT22;1537;52.018;8.542;2022-10-29T00:40:16;17.20;69.90
3055;DHT22;1537;52.018;8.542;2022-10-29T00:43:44;17.20;70.00
3055;DHT22;1537;52.018;8.542;2022-10-29T00:47:17;17.20;69.90
3055;DHT22;1537;52.018;8.542;2022-10-29T00:50:42;17.10;69.80
3055;DHT22;1537;52.018;8.542;2022-10-29T00:54:09;17.10;70.20
3055;DHT22;1537;52.018;8.542;2022-10-29T00:57:35;17.00;70.60
3055;DHT22;1537;52.018;8.542;2022-10-29T01:01:00;16.90;71.10
3055;DHT22;1537;52.018;8.542;2022-10-29T01:04:26;16.80;71.40
3055;DHT22;1537;52.018;8.542;2022-10-29T01:07:50;16.70;71.70
3055;DHT22;1537;52.018;8.542;2022-10-29T01:11:19;16.70;72.00
3055;DHT22;1537;52.018;8.542;2022-10-29T01:14:51;16.80;72.10
3055;DHT22;1537;52.018;8.542;2022-10-29T01:18:21;16.70;72.20
3055;DHT22;1537;52.018;8.542;2022-10-29T01:21:52;16.70;72.20
3055;DHT22;1537;52.018;8.542;2022-10-29T01:25:35;16.80;72.30
3055;DHT22;1537;52.018;8.542;2022-10-29T01:29:20;16.80;72.40
3055;DHT22;1537;52.018;8.542;2022-10-29T01:33:04;16.80;71.70
3055;DHT22;1537;52.018;8.542;2022-10-29T01:36:32;16.90;71.80
3055;DHT22;1537;52.018;8.542;2022-10-29T01:39:59;16.80;71.80
3055;DHT22;1537;52.018;8.542;2022-10-29T01:43:32;16.80;71.80
3055;DHT22;1537;52.018;8.542;2022-10-29T01:46:58;16.80;71.80
3055;DHT22;1537;52.018;8.542;2022-10-29T01:50:25;16.80;72.10
3055;DHT22;1537;52.018;8.542;2022-10-29T01:53:49;16.70;72.30
3055;DHT22;1537;52.018;8.542;2022-10-29T01:57:29;16.70;72.40
3055;DHT22;1537;52.018;8.542;2022-10-29T02:00:58;16.80;72.40
3055;DHT22;1537;52.018;8.542;2022-10-29T02:04:49;16.80;72.00
3055;DHT22;1537;52.018;8.542;2022-10-29T02:08:25;16.80;71.80
3055;DHT22;1537;52.018;8.542;2022-10-29T02:11:57;16.80;71.70
3055;DHT22;1537;52.018;8.542;2022-10-29T02:15:25;16.70;71.70
3055;DHT22;1537;52.018;8.542;2022-10-29T02:18:50;16.60;71.80
3055;DHT22;1537;52.018;8.542;2022-10-29T02:22:14;16.60;71.80
3055;DHT22;1537;52.018;8.542;2022-10-29T02:25:39;16.60;71.90
3055;DHT22;1537;52.018;8.542;2022-10-29T02:29:03;16.50;71.90
3055;DHT22;1537;52.018;8.542;2022-10-29T02:32:27;16.50;72.10
3055;DHT22;1537;52.018;8.542;2022-10-29T02:35:51;16.50;72.30
3055;DHT22;1537;52.018;8.542;2022-10-29T02:39:14;16.50;72.40
3055;DHT22;1537;52.018;8.542;2022-10-29T02:42:39;16.50;72.40
3055;DHT22;1537;52.018;8.542;2022-10-29T02:46:13;16.50;72.30
3055;DHT22;1537;52.018;8.542;2022-10-29T02:49:37;16.50;72.20
3055;DHT22;1537;52.018;8.542;2022-10-29T02:53:01;16.40;72.20
3055;DHT22;1537;52.018;8.542;2022-10-29T02:56:25;16.50;72.30
3055;DHT22;1537;52.018;8.542;2022-10-29T02:59:50;16.50;72.40
3055;DHT22;1537;52.018;8.542;2022-10-29T03:03:13;16.40;72.40
3055;DHT22;1537;52.018;8.542;2022-10-29T03:06:37;16.40;72.50
3055;DHT22;1537;52.018;8.542;2022-10-29T03:10:01;16.30;72.70
3055;DHT22;1537;52.018;8.542;2022-10-29T03:13:25;16.20;73.10
3055;DHT22;1537;52.018;8.542;2022-10-29T03:16:50;16.20;73.50
3055;DHT22;1537;52.018;8.542;2022-10-29T03:20:14;16.20;73.50
3055;DHT22;1537;52.018;8.542;2022-10-29T03:23:38;16.20;73.70
3055;DHT22;1537;52.018;8.542;2022-10-29T03:27:01;16.20;73.80
3055;DHT22;1537;52.018;8.542;2022-10-29T03:30:25;16.10;73.80
3055;DHT22;1537;52.018;8.542;2022-10-29T03:33:50;16.10;74.80
3055;DHT22;1537;52.018;8.542;2022-10-29T03:37:14;16.10;74.30
3055;DHT22;1537;52.018;8.542;2022-10-29T03:40:37;16.10;74.60
3055;DHT22;1537;52.018;8.542;2022-10-29T03:44:01;16.00;74.80
3055;DHT22;1537;52.018;8.542;2022-10-29T03:47:25;16.00;74.80
3055;DHT22;1537;52.018;8.542;2022-10-29T03:50:57;16.10;75.00
3055;DHT22;1537;52.018;8.542;2022-10-29T03:54:22;16.10;75.00
3055;DHT22;1537;52.018;8.542;2022-10-29T03:57:46;16.00;75.30
3055;DHT22;1537;52.018;8.542;2022-10-29T04:01:10;16.00;75.40
3055;DHT22;1537;52.018;8.542;2022-10-29T04:04:33;16.10;75.30
3055;DHT22;1537;52.018;8.542;2022-10-29T04:07:58;16.00;75.10
3055;DHT22;1537;52.018;8.542;2022-10-29T04:11:22;16.10;75.10
3055;DHT22;1537;52.018;8.542;2022-10-29T04:14:46;16.00;75.00
3055;DHT22;1537;52.018;8.542;2022-10-29T04:18:10;16.00;75.10
3055;DHT22;1537;52.018;8.542;2022-10-29T04:21:34;16.10;75.10
3055;DHT22;1537;52.018;8.542;2022-10-29T04:25:19;15.90;74.50
3055;DHT22;1537;52.018;8.542;2022-10-29T04:29:03;15.80;74.90
3055;DHT22;1537;52.018;8.542;2022-10-29T04:32:27;15.70;75.60
3055;DHT22;1537;52.018;8.542;2022-10-29T04:35:51;15.70;75.80
3055;DHT22;1537;52.018;8.542;2022-10-29T04:39:15;15.60;76.40
3055;DHT22;1537;52.018;8.542;2022-10-29T04:42:45;15.50;77.20
3055;DHT22;1537;52.018;8.542;2022-10-29T04:46:09;15.40;77.50
3055;DHT22;1537;52.018;8.542;2022-10-29T04:49:33;15.30;78.00
3055;DHT22;1537;52.018;8.542;2022-10-29T04:52:57;15.30;78.90
3055;DHT22;1537;52.018;8.542;2022-10-29T04:56:22;15.30;79.00
3055;DHT22;1537;52.018;8.542;2022-10-29T04:59:47;15.30;79.20
3055;DHT22;1537;52.018;8.542;2022-10-29T05:03:11;15.40;79.10
3055;DHT22;1537;52.018;8.542;2022-10-29T05:06:35;15.50;79.20
3055;DHT22;1537;52.018;8.542;2022-10-29T05:09:59;15.50;78.80
3055;DHT22;1537;52.018;8.542;2022-10-29T05:13:23;15.50;78.60
3055;DHT22;1537;52.018;8.542;2022-10-29T05:16:48;15.60;78.40
3055;DHT22;1537;52.018;8.542;2022-10-29T05:20:11;15.60;78.50
3055;DHT22;1537;52.018;8.542;2022-10-29T05:23:35;15.60;78.40
3055;DHT22;1537;52.018;8.542;2022-10-29T05:26:59;15.60;78.40
3055;DHT22;1537;52.018;8.542;2022-10-29T05:30:23;15.50;78.40
3055;DHT22;1537;52.018;8.542;2022-10-29T05:33:48;15.50;78.60
3055;DHT22;1537;52.018;8.542;2022-10-29T05:37:17;15.50;78.60
3055;DHT22;1537;52.018;8.542;2022-10-29T05:40:41;15.40;78.50
3055;DHT22;1537;52.018;8.542;2022-10-29T05:44:06;15.40;78.70
3055;DHT22;1537;52.018;8.542;2022-10-29T05:47:30;15.50;78.70
3055;DHT22;1537;52.018;8.542;2022-10-29T05:50:55;15.50;78.40
3055;DHT22;1537;52.018;8.542;2022-10-29T05:54:19;15.40;78.70
3055;DHT22;1537;52.018;8.542;2022-10-29T05:57:44;15.30;79.10
3055;DHT22;1537;52.018;8.542;2022-10-29T06:01:08;15.40;79.20
3055;DHT22;1537;52.018;8.542;2022-10-29T06:04:33;15.40;79.20
3055;DHT22;1537;52.018;8.542;2022-10-29T06:07:59;15.40;79.70
3055;DHT22;1537;52.018;8.542;2022-10-29T06:11:23;15.30;79.20
3055;DHT22;1537;52.018;8.542;2022-10-29T06:14:46;15.40;79.30
3055;DHT22;1537;52.018;8.542;2022-10-29T06:18:10;15.40;79.40
3055;DHT22;1537;52.018;8.542;2022-10-29T06:21:34;15.40;79.30
3055;DHT22;1537;52.018;8.542;2022-10-29T06:24:59;15.40;79.00
3055;DHT22;1537;52.018;8.542;2022-10-29T06:28:23;15.50;79.10
3055;DHT22;1537;52.018;8.542;2022-10-29T06:31:51;15.50;79.00
3055;DHT22;1537;52.018;8.542;2022-10-29T06:35:15;15.60;78.90
3055;DHT22;1537;52.018;8.542;2022-10-29T06:38:39;15.60;78.60
3055;DHT22;1537;52.018;8.542;2022-10-29T06:42:04;15.60;78.20
3055;DHT22;1537;52.018;8.542;2022-10-29T06:45:29;15.70;78.40
3055;DHT22;1537;52.018;8.542;2022-10-29T06:48:53;15.70;78.10
3055;DHT22;1537;52.018;8.542;2022-10-29T06:52:16;15.80;77.90
3055;DHT22;1537;52.018;8.542;2022-10-29T06:55:40;15.90;77.80
3055;DHT22;1537;52.018;8.542;2022-10-29T06:59:05;16.00;77.70
3055;DHT22;1537;52.018;8.542;2022-10-29T07:02:29;16.10;77.50
3055;DHT22;1537;52.018;8.542;2022-10-29T07:05:56;16.20;77.00
3055;DHT22;1537;52.018;8.542;2022-10-29T07:09:20;16.10;75.10
3055;DHT22;1537;52.018;8.542;2022-10-29T07:12:44;15.90;75.80
3055;DHT22;1537;52.018;8.542;2022-10-29T07:16:09;15.80;76.60
3055;DHT22;1537;52.018;8.542;2022-10-29T07:19:33;15.90;76.40
3055;DHT22;1537;52.018;8.542;2022-10-29T07:22:57;15.90;76.50
3055;DHT22;1537;52.018;8.542;2022-10-29T07:26:21;15.90;76.50
3055;DHT22;1537;52.018;8.542;2022-10-29T07:29:45;16.00;76.70
3055;DHT22;1537;52.018;8.542;2022-10-29T07:33:10;16.10;76.10
3055;DHT22;1537;52.018;8.542;2022-10-29T07:36:34;16.10;75.60
3055;DHT22;1537;52.018;8.542;2022-10-29T07:39:58;16.10;75.50
3055;DHT22;1537;52.018;8.542;2022-10-29T07:43:21;16.20;74.90
3055;DHT22;1537;52.018;8.542;2022-10-29T07:46:45;16.30;75.20
3055;DHT22;1537;52.018;8.542;2022-10-29T07:50:10;16.40;74.80
3055;DHT22;1537;52.018;8.542;2022-10-29T07:53:34;16.60;74.30
3055;DHT22;1537;52.018;8.542;2022-10-29T07:56:58;16.90;73.30
3055;DHT22;1537;52.018;8.542;2022-10-29T08:00:21;17.10;72.60
3055;DHT22;1537;52.018;8.542;2022-10-29T08:03:45;17.20;70.80
3055;DHT22;1537;52.018;8.542;2022-10-29T08:07:10;17.20;70.60
3055;DHT22;1537;52.018;8.542;2022-10-29T08:10:35;17.50;70.60
3055;DHT22;1537;52.018;8.542;2022-10-29T08:13:59;17.90;69.30
3055;DHT22;1537;52.018;8.542;2022-10-29T08:17:22;18.20;69.00
3055;DHT22;1537;52.018;8.542;2022-10-29T08:20:47;18.60;66.20
3055;DHT22;1537;52.018;8.542;2022-10-29T08:24:12;18.80;64.30
3055;DHT22;1537;52.018;8.542;2022-10-29T08:27:35;18.50;63.90
3055;DHT22;1537;52.018;8.542;2022-10-29T08:30:59;18.10;65.70
3055;DHT22;1537;52.018;8.542;2022-10-29T08:34:23;17.50;68.10
3055;DHT22;1537;52.018;8.542;2022-10-29T08:37:46;17.40;69.60
3055;DHT22;1537;52.018;8.542;2022-10-29T08:41:21;17.60;69.30
3055;DHT22;1537;52.018;8.542;2022-10-29T08:45:19;17.50;69.60
3055;DHT22;1537;52.018;8.542;2022-10-29T08:48:49;17.40;69.70
3055;DHT22;1537;52.018;8.542;2022-10-29T08:52:18;17.50;69.70
3055;DHT22;1537;52.018;8.542;2022-10-29T08:55:45;17.50;69.40
3055;DHT22;1537;52.018;8.542;2022-10-29T08:59:13;17.40;69.80
3055;DHT22;1537;52.018;8.542;2022-10-29T09:02:38;17.30;70.50
3055;DHT22;1537;52.018;8.542;2022-10-29T09:06:08;17.40;70.90
3055;DHT22;1537;52.018;8.542;2022-10-29T09:09:37;17.50;70.50
3055;DHT22;1537;52.018;8.542;2022-10-29T09:13:16;17.60;70.30
3055;DHT22;1537;52.018;8.542;2022-10-29T09:16:49;17.70;70.80
3055;DHT22;1537;52.018;8.542;2022-10-29T09:20:22;18.10;69.50
3055;DHT22;1537;52.018;8.542;2022-10-29T09:23:59;18.60;67.50
3055;DHT22;1537;52.018;8.542;2022-10-29T09:27:33;19.20;66.40
3055;DHT22;1537;52.018;8.542;2022-10-29T09:31:05;20.20;62.70
3055;DHT22;1537;52.018;8.542;2022-10-29T09:34:37;22.20;57.50
3055;DHT22;1537;52.018;8.542;2022-10-29T09:38:06;22.70;54.70
3055;DHT22;1537;52.018;8.542;2022-10-29T09:41:36;23.70;53.60
3055;DHT22;1537;52.018;8.542;2022-10-29T09:45:03;24.20;51.90
3055;DHT22;1537;52.018;8.542;2022-10-29T09:48:35;23.90;52.10
3055;DHT22;1537;52.018;8.542;2022-10-29T09:52:04;23.10;53.20
3055;DHT22;1537;52.018;8.542;2022-10-29T09:55:34;22.80;54.70
3055;DHT22;1537;52.018;8.542;2022-10-29T09:59:10;22.70;54.20
3055;DHT22;1537;52.018;8.542;2022-10-29T10:02:42;22.30;55.10
3055;DHT22;1537;52.018;8.542;2022-10-29T10:06:07;22.30;56.10
3055;DHT22;1537;52.018;8.542;2022-10-29T10:09:50;22.90;55.20
3055;DHT22;1537;52.018;8.542;2022-10-29T10:13:14;23.70;53.10
3055;DHT22;1537;52.018;8.542;2022-10-29T10:16:41;23.80;52.50
3055;DHT22;1537;52.018;8.542;2022-10-29T10:20:25;23.10;53.90
3055;DHT22;1537;52.018;8.542;2022-10-29T10:23:50;22.60;55.50
3055;DHT22;1537;52.018;8.542;2022-10-29T10:27:29;22.70;55.80
3055;DHT22;1537;52.018;8.542;2022-10-29T10:31:09;24.00;54.60
3055;DHT22;1537;52.018;8.542;2022-10-29T10:34:36;24.50;52.10
3055;DHT22;1537;52.018;8.542;2022-10-29T10:38:06;24.40;51.80
3055;DHT22;1537;52.018;8.542;2022-10-29T10:41:33;24.30;52.40
3055;DHT22;1537;52.018;8.542;2022-10-29T10:45:01;24.20;52.30
3055;DHT22;1537;52.018;8.542;2022-10-29T10:48:25;24.20;52.60
3055;DHT22;1537;52.018;8.542;2022-10-29T10:51:56;23.90;53.60
3055;DHT22;1537;52.018;8.542;2022-10-29T10:55:25;24.00;53.40
3055;DHT22;1537;52.018;8.542;2022-10-29T10:58:59;23.50;54.10
3055;DHT22;1537;52.018;8.542;2022-10-29T11:02:30;23.70;53.90
3055;DHT22;1537;52.018;8.542;2022-10-29T11:06:00;24.10;54.10
3055;DHT22;1537;52.018;8.542;2022-10-29T11:09:29;24.10;53.20
3055;DHT22;1537;52.018;8.542;2022-10-29T11:12:55;23.80;51.80
3055;DHT22;1537;52.018;8.542;2022-10-29T11:16:28;23.50;51.80
3055;DHT22;1537;52.018;8.542;2022-10-29T11:19:57;23.30;52.50
3055;DHT22;1537;52.018;8.542;2022-10-29T11:23:28;22.80;53.50
3055;DHT22;1537;52.018;8.542;2022-10-29T11:27:00;22.70;54.10
3055;DHT22;1537;52.018;8.542;2022-10-29T11:30:25;22.90;53.20
3055;DHT22;1537;52.018;8.542;2022-10-29T11:33:56;22.80;52.30
3055;DHT22;1537;52.018;8.542;2022-10-29T11:37:28;22.80;51.80
3055;DHT22;1537;52.018;8.542;2022-10-29T11:40:57;22.50;51.90
3055;DHT22;1537;52.018;8.542;2022-10-29T11:44:26;22.40;51.60
3055;DHT22;1537;52.018;8.542;2022-10-29T11:48:06;22.60;51.70
3055;DHT22;1537;52.018;8.542;2022-10-29T11:51:43;23.00;51.50
3055;DHT22;1537;52.018;8.542;2022-10-29T11:55:19;23.10;50.50
3055;DHT22;1537;52.018;8.542;2022-10-29T11:58:50;23.20;50.70
3055;DHT22;1537;52.018;8.542;2022-10-29T12:02:25;23.40;50.10
3055;DHT22;1537;52.018;8.542;2022-10-29T12:05:58;23.60;49.90
3055;DHT22;1537;52.018;8.542;2022-10-29T12:09:42;23.80;48.90
3055;DHT22;1537;52.018;8.542;2022-10-29T12:13:19;23.90;49.40
3055;DHT22;1537;52.018;8.542;2022-10-29T12:16:50;23.90;48.70
3055;DHT22;1537;52.018;8.542;2022-10-29T12:20:21;23.50;48.70
3055;DHT22;1537;52.018;8.542;2022-10-29T12:23:56;23.20;49.20
3055;DHT22;1537;52.018;8.542;2022-10-29T12:27:29;23.30;49.80
3055;DHT22;1537;52.018;8.542;2022-10-29T12:31:10;23.00;49.90
3055;DHT22;1537;52.018;8.542;2022-10-29T12:34:40;23.00;50.20
3055;DHT22;1537;52.018;8.542;2022-10-29T12:38:21;22.80;50.30
3055;DHT22;1537;52.018;8.542;2022-10-29T12:41:48;22.70;50.90
3055;DHT22;1537;52.018;8.542;2022-10-29T12:45:24;22.50;51.20
3055;DHT22;1537;52.018;8.542;2022-10-29T12:48:58;22.60;51.30
3055;DHT22;1537;52.018;8.542;2022-10-29T12:52:28;22.70;51.20
3055;DHT22;1537;52.018;8.542;2022-10-29T12:55:56;22.80;51.20
3055;DHT22;1537;52.018;8.542;2022-10-29T12:59:31;22.90;51.20
3055;DHT22;1537;52.018;8.542;2022-10-29T13:02:55;23.00;51.20
3055;DHT22;1537;52.018;8.542;2022-10-29T13:06:46;23.10;50.90
3055;DHT22;1537;52.018;8.542;2022-10-29T13:10:46;23.10;51.10
3055;DHT22;1537;52.018;8.542;2022-10-29T13:14:11;23.20;51.10
3055;DHT22;1537;52.018;8.542;2022-10-29T13:17:40;23.20;51.20
3055;DHT22;1537;52.018;8.542;2022-10-29T13:21:07;23.10;51.00
3055;DHT22;1537;52.018;8.542;2022-10-29T13:24:32;23.20;51.10
3055;DHT22;1537;52.018;8.542;2022-10-29T13:27:56;23.10;51.00
3055;DHT22;1537;52.018;8.542;2022-10-29T13:31:44;23.20;50.90
3055;DHT22;1537;52.018;8.542;2022-10-29T13:35:42;23.30;51.10
3055;DHT22;1537;52.018;8.542;2022-10-29T13:39:17;23.10;51.40
3055;DHT22;1537;52.018;8.542;2022-10-29T13:42:43;23.00;51.90
3055;DHT22;1537;52.018;8.542;2022-10-29T13:46:25;22.90;52.40
3055;DHT22;1537;52.018;8.542;2022-10-29T13:49:50;22.90;52.40
3055;DHT22;1537;52.018;8.542;2022-10-29T13:53:17;22.90;52.40
3055;DHT22;1537;52.018;8.542;2022-10-29T13:56:47;23.00;52.60
3055;DHT22;1537;52.018;8.542;2022-10-29T14:00:18;23.20;52.40
3055;DHT22;1537;52.018;8.542;2022-10-29T14:03:53;23.20;52.50
3055;DHT22;1537;52.018;8.542;2022-10-29T14:07:22;23.10;52.50
3055;DHT22;1537;52.018;8.542;2022-10-29T14:10:49;22.90;53.00
3055;DHT22;1537;52.018;8.542;2022-10-29T14:14:24;22.80;53.10
3055;DHT22;1537;52.018;8.542;2022-10-29T14:17:50;22.50;53.00
3055;DHT22;1537;52.018;8.542;2022-10-29T14:21:16;22.50;53.40
3055;DHT22;1537;52.018;8.542;2022-10-29T14:24:40;22.50;52.90
3055;DHT22;1537;52.018;8.542;2022-10-29T14:28:18;22.60;53.00
3055;DHT22;1537;52.018;8.542;2022-10-29T14:31:42;22.60;52.70
3055;DHT22;1537;52.018;8.542;2022-10-29T14:35:12;22.70;52.80
3055;DHT22;1537;52.018;8.542;2022-10-29T14:38:40;22.70;52.80
3055;DHT22;1537;52.018;8.542;2022-10-29T14:45:33;22.40;52.80
3055;DHT22;1537;52.018;8.542;2022-10-29T14:49:04;22.30;53.10
3055;DHT22;1537;52.018;8.542;2022-10-29T14:52:36;22.30;53.30
3055;DHT22;1537;52.018;8.542;2022-10-29T14:56:07;22.20;53.70
3055;DHT22;1537;52.018;8.542;2022-10-29T14:59:32;22.10;53.90
3055;DHT22;1537;52.018;8.542;2022-10-29T15:02:57;21.90;54.30
3055;DHT22;1537;52.018;8.542;2022-10-29T15:06:26;21.90;54.50
3055;DHT22;1537;52.018;8.542;2022-10-29T15:13:40;21.90;54.30
3055;DHT22;1537;52.018;8.542;2022-10-29T15:17:10;21.90;54.30
3055;DHT22;1537;52.018;8.542;2022-10-29T15:20:36;21.90;54.30
3055;DHT22;1537;52.018;8.542;2022-10-29T15:24:08;21.80;54.40
3055;DHT22;1537;52.018;8.542;2022-10-29T15:27:42;21.80;54.50
3055;DHT22;1537;52.018;8.542;2022-10-29T15:31:06;21.80;54.50
3055;DHT22;1537;52.018;8.542;2022-10-29T15:34:35;21.70;54.40
3055;DHT22;1537;52.018;8.542;2022-10-29T15:37:59;21.60;54.30
3055;DHT22;1537;52.018;8.542;2022-10-29T15:41:35;21.60;54.70
3055;DHT22;1537;52.018;8.542;2022-10-29T15:48:51;21.50;54.90
3055;DHT22;1537;52.018;8.542;2022-10-29T15:52:19;21.40;55.00
3055;DHT22;1537;52.018;8.542;2022-10-29T15:55:53;21.40;55.20
3055;DHT22;1537;52.018;8.542;2022-10-29T15:59:20;21.30;55.00
3055;DHT22;1537;52.018;8.542;2022-10-29T16:02:46;21.30;55.00
3055;DHT22;1537;52.018;8.542;2022-10-29T16:06:10;21.30;55.20
3055;DHT22;1537;52.018;8.542;2022-10-29T16:09:36;21.30;55.20
3055;DHT22;1537;52.018;8.542;2022-10-29T16:12:59;21.30;55.10
3055;DHT22;1537;52.018;8.542;2022-10-29T16:16:24;21.30;54.80
3055;DHT22;1537;52.018;8.542;2022-10-29T16:19:49;21.20;54.80
3055;DHT22;1537;52.018;8.542;2022-10-29T16:23:13;21.20;54.80
3055;DHT22;1537;52.018;8.542;2022-10-29T16:26:37;21.10;54.50
3055;DHT22;1537;52.018;8.542;2022-10-29T16:30:00;21.00;54.60
3055;DHT22;1537;52.018;8.542;2022-10-29T16:33:24;21.00;54.90
3055;DHT22;1537;52.018;8.542;2022-10-29T16:36:49;20.90;55.20
3055;DHT22;1537;52.018;8.542;2022-10-29T16:40:14;20.80;55.70
3055;DHT22;1537;52.018;8.542;2022-10-29T16:43:38;20.60;56.50
3055;DHT22;1537;52.018;8.542;2022-10-29T16:47:01;20.40;57.20
3055;DHT22;1537;52.018;8.542;2022-10-29T16:50:27;20.30;57.40
3055;DHT22;1537;52.018;8.542;2022-10-29T16:53:52;20.10;57.70
3055;DHT22;1537;52.018;8.542;2022-10-29T16:57:15;20.10;58.10
3055;DHT22;1537;52.018;8.542;2022-10-29T17:00:39;20.00;58.20
3055;DHT22;1537;52.018;8.542;2022-10-29T17:04:03;19.80;58.60
3055;DHT22;1537;52.018;8.542;2022-10-29T17:07:27;19.80;58.70
3055;DHT22;1537;52.018;8.542;2022-10-29T17:10:57;19.70;58.80
3055;DHT22;1537;52.018;8.542;2022-10-29T17:14:21;19.60;59.10
3055;DHT22;1537;52.018;8.542;2022-10-29T17:17:45;19.60;58.90
3055;DHT22;1537;52.018;8.542;2022-10-29T17:21:09;19.60;58.60
3055;DHT22;1537;52.018;8.542;2022-10-29T17:24:32;19.60;58.80
3055;DHT22;1537;52.018;8.542;2022-10-29T17:27:57;19.70;58.80
3055;DHT22;1537;52.018;8.542;2022-10-29T17:31:21;19.60;58.80
3055;DHT22;1537;52.018;8.542;2022-10-29T17:34:46;19.60;58.80
3055;DHT22;1537;52.018;8.542;2022-10-29T17:38:11;19.60;58.90
3055;DHT22;1537;52.018;8.542;2022-10-29T17:41:35;19.50;59.30
3055;DHT22;1537;52.018;8.542;2022-10-29T17:45:00;19.50;59.40
3055;DHT22;1537;52.018;8.542;2022-10-29T17:48:24;19.40;60.10
3055;DHT22;1537;52.018;8.542;2022-10-29T17:51:48;19.30;59.00
3055;DHT22;1537;52.018;8.542;2022-10-29T17:55:11;19.30;59.80
3055;DHT22;1537;52.018;8.542;2022-10-29T17:58:37;19.30;60.00
3055;DHT22;1537;52.018;8.542;2022-10-29T18:02:02;19.20;60.50
3055;DHT22;1537;52.018;8.542;2022-10-29T18:05:26;19.00;61.20
3055;DHT22;1537;52.018;8.542;2022-10-29T18:08:49;19.00;61.80
3055;DHT22;1537;52.018;8.542;2022-10-29T18:12:13;19.00;61.70
3055;DHT22;1537;52.018;8.542;2022-10-29T18:15:36;18.90;61.80
3055;DHT22;1537;52.018;8.542;2022-10-29T18:19:02;18.90;62.20
3055;DHT22;1537;52.018;8.542;2022-10-29T18:22:26;18.70;63.00
3055;DHT22;1537;52.018;8.542;2022-10-29T18:26:00;18.70;63.50
3055;DHT22;1537;52.018;8.542;2022-10-29T18:29:24;18.50;64.40
3055;DHT22;1537;52.018;8.542;2022-10-29T18:32:48;18.40;65.00
3055;DHT22;1537;52.018;8.542;2022-10-29T18:36:13;18.30;65.40
3055;DHT22;1537;52.018;8.542;2022-10-29T18:39:37;18.30;65.80
3055;DHT22;1537;52.018;8.542;2022-10-29T18:43:01;18.30;65.90
3055;DHT22;1537;52.018;8.542;2022-10-29T18:46:25;18.30;66.80
3055;DHT22;1537;52.018;8.542;2022-10-29T18:49:49;18.30;66.10
3055;DHT22;1537;52.018;8.542;2022-10-29T18:53:14;18.10;67.00
3055;DHT22;1537;52.018;8.542;2022-10-29T18:56:38;18.00;68.10
3055;DHT22;1537;52.018;8.542;2022-10-29T19:00:02;17.90;68.90
3055;DHT22;1537;52.018;8.542;2022-10-29T19:03:26;17.80;69.60
3055;DHT22;1537;52.018;8.542;2022-10-29T19:06:50;17.70;69.70
3055;DHT22;1537;52.018;8.542;2022-10-29T19:10:15;17.70;69.80
3055;DHT22;1537;52.018;8.542;2022-10-29T19:13:39;17.80;69.70
3055;DHT22;1537;52.018;8.542;2022-10-29T19:17:02;17.70;69.80
3055;DHT22;1537;52.018;8.542;2022-10-29T19:20:27;17.70;70.20
3055;DHT22;1537;52.018;8.542;2022-10-29T19:23:53;17.60;70.30
3055;DHT22;1537;52.018;8.542;2022-10-29T19:27:18;17.60;70.50
3055;DHT22;1537;52.018;8.542;2022-10-29T19:30:42;17.50;71.70
3055;DHT22;1537;52.018;8.542;2022-10-29T19:34:07;17.50;70.80
3055;DHT22;1537;52.018;8.542;2022-10-29T19:37:30;17.50;70.90
3055;DHT22;1537;52.018;8.542;2022-10-29T19:40:55;17.60;70.80
3055;DHT22;1537;52.018;8.542;2022-10-29T19:44:20;17.50;71.20
3055;DHT22;1537;52.018;8.542;2022-10-29T19:47:44;17.20;72.20
3055;DHT22;1537;52.018;8.542;2022-10-29T19:51:09;17.20;72.80
3055;DHT22;1537;52.018;8.542;2022-10-29T19:54:33;17.20;72.30
3055;DHT22;1537;52.018;8.542;2022-10-29T19:57:56;17.20;72.40
3055;DHT22;1537;52.018;8.542;2022-10-29T20:01:21;17.20;72.10
3055;DHT22;1537;52.018;8.542;2022-10-29T20:04:45;17.10;72.50
3055;DHT22;1537;52.018;8.542;2022-10-29T20:08:09;17.10;73.00
3055;DHT22;1537;52.018;8.542;2022-10-29T20:11:37;17.00;73.40
3055;DHT22;1537;52.018;8.542;2022-10-29T20:15:01;17.00;73.00
3055;DHT22;1537;52.018;8.542;2022-10-29T20:18:26;17.00;73.20
3055;DHT22;1537;52.018;8.542;2022-10-29T20:21:49;17.00;73.20
3055;DHT22;1537;52.018;8.542;2022-10-29T20:25:13;16.90;73.20
3055;DHT22;1537;52.018;8.542;2022-10-29T20:28:45;16.90;73.50
3055;DHT22;1537;52.018;8.542;2022-10-29T20:32:09;16.80;73.60
3055;DHT22;1537;52.018;8.542;2022-10-29T20:35:34;16.80;73.60
3055;DHT22;1537;52.018;8.542;2022-10-29T20:38:57;16.70;74.00
3055;DHT22;1537;52.018;8.542;2022-10-29T20:42:21;16.50;74.50
3055;DHT22;1537;52.018;8.542;2022-10-29T20:45:45;16.40;75.00
3055;DHT22;1537;52.018;8.542;2022-10-29T20:49:08;16.30;75.80
3055;DHT22;1537;52.018;8.542;2022-10-29T20:52:33;16.30;75.90
3055;DHT22;1537;52.018;8.542;2022-10-29T20:55:57;16.30;76.10
3055;DHT22;1537;52.018;8.542;2022-10-29T20:59:21;16.30;76.10
3055;DHT22;1537;52.018;8.542;2022-10-29T21:02:44;16.30;76.20
3055;DHT22;1537;52.018;8.542;2022-10-29T21:06:10;16.30;76.20
3055;DHT22;1537;52.018;8.542;2022-10-29T21:09:40;16.30;76.10
3055;DHT22;1537;52.018;8.542;2022-10-29T21:13:04;16.30;76.20
3055;DHT22;1537;52.018;8.542;2022-10-29T21:16:28;16.20;76.20
3055;DHT22;1537;52.018;8.542;2022-10-29T21:19:52;16.30;76.30
3055;DHT22;1537;52.018;8.542;2022-10-29T21:23:15;16.30;76.50
3055;DHT22;1537;52.018;8.542;2022-10-29T21:26:46;16.30;76.10
3055;DHT22;1537;52.018;8.542;2022-10-29T21:30:11;16.30;76.00
3055;DHT22;1537;52.018;8.542;2022-10-29T21:33:35;16.30;75.80
3055;DHT22;1537;52.018;8.542;2022-10-29T21:36:59;16.30;75.80
3055;DHT22;1537;52.018;8.542;2022-10-29T21:40:23;16.30;75.80
3055;DHT22;1537;52.018;8.542;2022-10-29T21:43:48;16.40;75.50
3055;DHT22;1537;52.018;8.542;2022-10-29T21:47:11;16.50;75.30
3055;DHT22;1537;52.018;8.542;2022-10-29T21:50:35;16.50;75.00
3055;DHT22;1537;52.018;8.542;2022-10-29T21:53:59;16.50;74.40
3055;DHT22;1537;52.018;8.542;2022-10-29T21:57:23;16.60;74.20
3055;DHT22;1537;52.018;8.542;2022-10-29T22:00:48;16.50;74.30
3055;DHT22;1537;52.018;8.542;2022-10-29T22:04:12;16.50;73.90
3055;DHT22;1537;52.018;8.542;2022-10-29T22:07:35;16.50;73.70
3055;DHT22;1537;52.018;8.542;2022-10-29T22:10:59;16.60;73.50
3055;DHT22;1537;52.018;8.542;2022-10-29T22:14:23;16.50;73.20
3055;DHT22;1537;52.018;8.542;2022-10-29T22:17:48;16.50;73.20
3055;DHT22;1537;52.018;8.542;2022-10-29T22:21:14;16.50;73.10
3055;DHT22;1537;52.018;8.542;2022-10-29T22:24:38;16.40;73.60
3055;DHT22;1537;52.018;8.542;2022-10-29T22:28:02;16.40;73.30
3055;DHT22;1537;52.018;8.542;2022-10-29T22:31:26;16.30;73.50
3055;DHT22;1537;52.018;8.542;2022-10-29T22:34:51;16.30;73.70
3055;DHT22;1537;52.018;8.542;2022-10-29T22:38:15;16.30;73.50
3055;DHT22;1537;52.018;8.542;2022-10-29T22:41:38;16.30;73.60
3055;DHT22;1537;52.018;8.542;2022-10-29T22:45:02;16.20;73.50